Burns Township, Minnesota
Current Conditions -  °F | °C
As of 9:34 AM on Monday 22 Dec 2014 (Local Time) from KPNM Reporting Station
Haze Haze  
Wind Chill: 31°   Ceiling: 500
Heat Index: 37°   Visibility: 4mi
Dew Point: 36°   Wind: 8mph
Humidity: 93%   Direction: 120°ESE
Pressure: 29.64"   Gusts: 17mph
Location:  45.345°N, 93.5658°W
Report Text: KPNM 221534Z AUTO 12007G15KT 4SM BR OVC005 03/02 A2964 RMK AO2
Loading
Personal Weather Stations






























Interactive Weather Map New forecast layout! Learn more

10-Day Weather Forecast

Advertisements
Track Severe Weather on mobile